sensor_id;sensor_type;location;lat;lon;timestamp;P1;durP1;ratioP1;P2;durP2;ratioP2
1390;SDS011;690;51.454;7.194;2023-10-31T00:00:45;3.53;;;3.13;;
1390;SDS011;690;51.454;7.194;2023-10-31T00:03:12;3.63;;;3.33;;
1390;SDS011;690;51.454;7.194;2023-10-31T00:05:39;4.30;;;3.90;;
1390;SDS011;690;51.454;7.194;2023-10-31T00:08:07;4.10;;;3.80;;
1390;SDS011;690;51.454;7.194;2023-10-31T00:10:34;3.70;;;3.40;;
1390;SDS011;690;51.454;7.194;2023-10-31T00:13:01;3.97;;;3.63;;
1390;SDS011;690;51.454;7.194;2023-10-31T00:15:27;5.20;;;3.90;;
1390;SDS011;690;51.454;7.194;2023-10-31T00:17:55;4.80;;;4.17;;
1390;SDS011;690;51.454;7.194;2023-10-31T00:20:22;5.63;;;5.13;;
1390;SDS011;690;51.454;7.194;2023-10-31T00:22:49;6.27;;;5.67;;
1390;SDS011;690;51.454;7.194;2023-10-31T00:25:18;6.60;;;6.00;;
1390;SDS011;690;51.454;7.194;2023-10-31T00:27:45;6.57;;;5.93;;
1390;SDS011;690;51.454;7.194;2023-10-31T00:30:12;6.00;;;5.43;;
1390;SDS011;690;51.454;7.194;2023-10-31T00:32:39;5.60;;;5.10;;
1390;SDS011;690;51.454;7.194;2023-10-31T00:35:06;6.23;;;5.70;;
1390;SDS011;690;51.454;7.194;2023-10-31T00:37:33;4.60;;;4.20;;
1390;SDS011;690;51.454;7.194;2023-10-31T00:40:00;3.73;;;3.43;;
1390;SDS011;690;51.454;7.194;2023-10-31T00:42:28;3.10;;;2.90;;
1390;SDS011;690;51.454;7.194;2023-10-31T00:44:55;2.67;;;2.47;;
1390;SDS011;690;51.454;7.194;2023-10-31T00:47:22;3.10;;;2.90;;
1390;SDS011;690;51.454;7.194;2023-10-31T00:49:49;2.77;;;2.30;;
1390;SDS011;690;51.454;7.194;2023-10-31T00:52:18;2.30;;;2.07;;
1390;SDS011;690;51.454;7.194;2023-10-31T00:54:45;2.20;;;2.10;;
1390;SDS011;690;51.454;7.194;2023-10-31T00:57:11;2.70;;;2.43;;
1390;SDS011;690;51.454;7.194;2023-10-31T00:59:40;2.30;;;2.10;;
1390;SDS011;690;51.454;7.194;2023-10-31T01:02:07;1.83;;;1.73;;
1390;SDS011;690;51.454;7.194;2023-10-31T01:04:35;2.20;;;1.87;;
1390;SDS011;690;51.454;7.194;2023-10-31T01:07:03;2.07;;;1.97;;
1390;SDS011;690;51.454;7.194;2023-10-31T01:09:30;2.70;;;2.50;;
1390;SDS011;690;51.454;7.194;2023-10-31T01:11:57;4.20;;;3.80;;
1390;SDS011;690;51.454;7.194;2023-10-31T01:14:24;3.00;;;2.70;;
1390;SDS011;690;51.454;7.194;2023-10-31T01:16:52;3.90;;;3.57;;
1390;SDS011;690;51.454;7.194;2023-10-31T01:19:19;3.60;;;3.20;;
1390;SDS011;690;51.454;7.194;2023-10-31T01:21:46;3.53;;;3.23;;
1390;SDS011;690;51.454;7.194;2023-10-31T01:24:12;3.70;;;3.40;;
1390;SDS011;690;51.454;7.194;2023-10-31T01:26:39;3.40;;;3.10;;
1390;SDS011;690;51.454;7.194;2023-10-31T01:29:06;3.37;;;3.07;;
1390;SDS011;690;51.454;7.194;2023-10-31T01:31:33;3.63;;;2.87;;
1390;SDS011;690;51.454;7.194;2023-10-31T01:34:03;3.03;;;2.70;;
1390;SDS011;690;51.454;7.194;2023-10-31T01:36:30;3.83;;;2.90;;
1390;SDS011;690;51.454;7.194;2023-10-31T01:38:57;4.20;;;3.00;;
1390;SDS011;690;51.454;7.194;2023-10-31T01:41:24;2.90;;;2.70;;
1390;SDS011;690;51.454;7.194;2023-10-31T01:43:51;3.60;;;3.13;;
1390;SDS011;690;51.454;7.194;2023-10-31T01:46:18;4.03;;;3.73;;
1390;SDS011;690;51.454;7.194;2023-10-31T01:48:45;3.90;;;3.07;;
1390;SDS011;690;51.454;7.194;2023-10-31T01:51:13;3.67;;;3.20;;
1390;SDS011;690;51.454;7.194;2023-10-31T01:53:40;4.33;;;3.10;;
1390;SDS011;690;51.454;7.194;2023-10-31T01:56:08;3.13;;;2.83;;
1390;SDS011;690;51.454;7.194;2023-10-31T01:58:35;4.37;;;3.20;;
1390;SDS011;690;51.454;7.194;2023-10-31T02:01:04;2.80;;;2.57;;
1390;SDS011;690;51.454;7.194;2023-10-31T02:03:31;3.33;;;3.03;;
1390;SDS011;690;51.454;7.194;2023-10-31T02:05:59;4.30;;;3.27;;
1390;SDS011;690;51.454;7.194;2023-10-31T02:08:27;4.93;;;3.23;;
1390;SDS011;690;51.454;7.194;2023-10-31T02:10:54;4.10;;;3.70;;
1390;SDS011;690;51.454;7.194;2023-10-31T02:13:21;4.23;;;3.30;;
1390;SDS011;690;51.454;7.194;2023-10-31T02:15:48;3.33;;;3.03;;
1390;SDS011;690;51.454;7.194;2023-10-31T02:18:16;3.23;;;2.93;;
1390;SDS011;690;51.454;7.194;2023-10-31T02:20:44;3.93;;;3.17;;
1390;SDS011;690;51.454;7.194;2023-10-31T02:23:12;4.83;;;3.30;;
1390;SDS011;690;51.454;7.194;2023-10-31T02:25:42;4.53;;;4.13;;
1390;SDS011;690;51.454;7.194;2023-10-31T02:28:09;6.07;;;4.07;;
1390;SDS011;690;51.454;7.194;2023-10-31T02:30:35;3.97;;;3.57;;
1390;SDS011;690;51.454;7.194;2023-10-31T02:33:02;4.63;;;4.23;;
1390;SDS011;690;51.454;7.194;2023-10-31T02:35:29;6.57;;;5.40;;
1390;SDS011;690;51.454;7.194;2023-10-31T02:37:56;6.27;;;5.77;;
1390;SDS011;690;51.454;7.194;2023-10-31T02:40:24;6.20;;;5.30;;
1390;SDS011;690;51.454;7.194;2023-10-31T02:42:51;7.10;;;6.50;;
1390;SDS011;690;51.454;7.194;2023-10-31T02:45:18;9.70;;;6.83;;
1390;SDS011;690;51.454;7.194;2023-10-31T02:47:45;7.80;;;7.00;;
1390;SDS011;690;51.454;7.194;2023-10-31T02:50:12;9.10;;;7.20;;
1390;SDS011;690;51.454;7.194;2023-10-31T02:52:39;9.33;;;8.03;;
1390;SDS011;690;51.454;7.194;2023-10-31T02:55:07;8.20;;;7.40;;
1390;SDS011;690;51.454;7.194;2023-10-31T02:57:35;8.43;;;7.40;;
1390;SDS011;690;51.454;7.194;2023-10-31T03:00:02;11.73;;;8.10;;
1390;SDS011;690;51.454;7.194;2023-10-31T03:02:30;10.27;;;9.17;;
1390;SDS011;690;51.454;7.194;2023-10-31T03:04:57;9.30;;;8.40;;
1390;SDS011;690;51.454;7.194;2023-10-31T03:07:24;12.27;;;8.20;;
1390;SDS011;690;51.454;7.194;2023-10-31T03:09:50;10.93;;;9.00;;
1390;SDS011;690;51.454;7.194;2023-10-31T03:12:19;8.43;;;7.63;;
1390;SDS011;690;51.454;7.194;2023-10-31T03:14:47;9.50;;;7.17;;
1390;SDS011;690;51.454;7.194;2023-10-31T03:17:20;10.30;;;8.20;;
1390;SDS011;690;51.454;7.194;2023-10-31T03:19:47;10.63;;;9.60;;
1390;SDS011;690;51.454;7.194;2023-10-31T03:22:14;11.90;;;9.80;;
1390;SDS011;690;51.454;7.194;2023-10-31T03:24:41;12.93;;;10.13;;
1390;SDS011;690;51.454;7.194;2023-10-31T03:27:07;14.20;;;10.50;;
1390;SDS011;690;51.454;7.194;2023-10-31T03:29:34;12.00;;;10.10;;
1390;SDS011;690;51.454;7.194;2023-10-31T03:32:03;13.97;;;11.57;;
1390;SDS011;690;51.454;7.194;2023-10-31T03:34:31;11.10;;;10.00;;
1390;SDS011;690;51.454;7.194;2023-10-31T03:36:57;14.40;;;10.53;;
1390;SDS011;690;51.454;7.194;2023-10-31T03:39:24;12.63;;;10.90;;
1390;SDS011;690;51.454;7.194;2023-10-31T03:41:51;15.20;;;12.57;;
1390;SDS011;690;51.454;7.194;2023-10-31T03:44:19;15.33;;;11.60;;
1390;SDS011;690;51.454;7.194;2023-10-31T03:46:46;14.80;;;12.03;;
1390;SDS011;690;51.454;7.194;2023-10-31T03:49:14;15.10;;;13.50;;
1390;SDS011;690;51.454;7.194;2023-10-31T03:51:41;18.17;;;14.10;;
1390;SDS011;690;51.454;7.194;2023-10-31T03:54:08;14.83;;;13.17;;
1390;SDS011;690;51.454;7.194;2023-10-31T03:56:38;18.27;;;14.60;;
1390;SDS011;690;51.454;7.194;2023-10-31T03:59:06;19.43;;;14.20;;
1390;SDS011;690;51.454;7.194;2023-10-31T04:01:32;18.90;;;14.20;;
1390;SDS011;690;51.454;7.194;2023-10-31T04:03:59;18.67;;;15.10;;
1390;SDS011;690;51.454;7.194;2023-10-31T04:06:28;18.70;;;14.90;;
1390;SDS011;690;51.454;7.194;2023-10-31T04:08:55;20.73;;;14.40;;
1390;SDS011;690;51.454;7.194;2023-10-31T04:11:22;14.97;;;12.77;;
1390;SDS011;690;51.454;7.194;2023-10-31T04:13:49;14.40;;;12.33;;
1390;SDS011;690;51.454;7.194;2023-10-31T04:16:16;13.87;;;9.93;;
1390;SDS011;690;51.454;7.194;2023-10-31T04:18:43;12.70;;;9.33;;
1390;SDS011;690;51.454;7.194;2023-10-31T04:21:09;11.70;;;9.20;;
1390;SDS011;690;51.454;7.194;2023-10-31T04:23:38;8.93;;;7.70;;
1390;SDS011;690;51.454;7.194;2023-10-31T04:26:05;10.60;;;8.83;;
1390;SDS011;690;51.454;7.194;2023-10-31T04:28:32;10.10;;;8.20;;
1390;SDS011;690;51.454;7.194;2023-10-31T04:30:58;9.77;;;8.10;;
1390;SDS011;690;51.454;7.194;2023-10-31T04:33:25;11.20;;;9.40;;
1390;SDS011;690;51.454;7.194;2023-10-31T04:35:52;10.50;;;7.87;;
1390;SDS011;690;51.454;7.194;2023-10-31T04:38:19;12.37;;;8.83;;
1390;SDS011;690;51.454;7.194;2023-10-31T04:40:48;12.77;;;8.77;;
1390;SDS011;690;51.454;7.194;2023-10-31T04:43:15;10.00;;;8.50;;
1390;SDS011;690;51.454;7.194;2023-10-31T04:45:42;10.63;;;8.30;;
1390;SDS011;690;51.454;7.194;2023-10-31T04:48:09;10.90;;;8.20;;
1390;SDS011;690;51.454;7.194;2023-10-31T04:50:35;10.43;;;8.00;;
1390;SDS011;690;51.454;7.194;2023-10-31T04:53:03;10.77;;;8.90;;
1390;SDS011;690;51.454;7.194;2023-10-31T04:55:30;10.70;;;8.43;;
1390;SDS011;690;51.454;7.194;2023-10-31T04:57:59;10.80;;;8.00;;
1390;SDS011;690;51.454;7.194;2023-10-31T05:00:25;10.40;;;8.30;;
1390;SDS011;690;51.454;7.194;2023-10-31T05:02:52;11.30;;;8.70;;
1390;SDS011;690;51.454;7.194;2023-10-31T05:05:21;13.70;;;8.40;;
1390;SDS011;690;51.454;7.194;2023-10-31T05:07:48;11.10;;;8.17;;
1390;SDS011;690;51.454;7.194;2023-10-31T05:10:15;11.17;;;8.00;;
1390;SDS011;690;51.454;7.194;2023-10-31T05:12:42;11.37;;;8.70;;
1390;SDS011;690;51.454;7.194;2023-10-31T05:15:11;11.63;;;8.87;;
1390;SDS011;690;51.454;7.194;2023-10-31T05:17:38;12.07;;;9.30;;
1390;SDS011;690;51.454;7.194;2023-10-31T05:20:05;10.97;;;9.47;;
1390;SDS011;690;51.454;7.194;2023-10-31T05:22:33;10.27;;;8.70;;
1390;SDS011;690;51.454;7.194;2023-10-31T05:25:01;12.80;;;9.60;;
1390;SDS011;690;51.454;7.194;2023-10-31T05:27:27;11.50;;;9.97;;
1390;SDS011;690;51.454;7.194;2023-10-31T05:29:54;10.00;;;8.70;;
1390;SDS011;690;51.454;7.194;2023-10-31T05:32:23;8.20;;;7.27;;
1390;SDS011;690;51.454;7.194;2023-10-31T05:34:49;13.57;;;8.40;;
1390;SDS011;690;51.454;7.194;2023-10-31T05:37:16;10.60;;;9.17;;
1390;SDS011;690;51.454;7.194;2023-10-31T05:39:43;12.60;;;9.83;;
1390;SDS011;690;51.454;7.194;2023-10-31T05:42:10;11.40;;;8.70;;
1390;SDS011;690;51.454;7.194;2023-10-31T05:44:37;12.53;;;9.10;;
1390;SDS011;690;51.454;7.194;2023-10-31T05:47:04;9.87;;;8.40;;
1390;SDS011;690;51.454;7.194;2023-10-31T05:49:32;13.67;;;8.83;;
1390;SDS011;690;51.454;7.194;2023-10-31T05:51:59;12.63;;;9.40;;
1390;SDS011;690;51.454;7.194;2023-10-31T05:54:26;10.23;;;8.17;;
1390;SDS011;690;51.454;7.194;2023-10-31T05:56:54;9.67;;;8.57;;
1390;SDS011;690;51.454;7.194;2023-10-31T05:59:20;11.90;;;9.23;;
1390;SDS011;690;51.454;7.194;2023-10-31T06:01:47;10.83;;;8.20;;
1390;SDS011;690;51.454;7.194;2023-10-31T06:04:15;11.57;;;8.30;;
1390;SDS011;690;51.454;7.194;2023-10-31T06:06:43;9.90;;;8.63;;
1390;SDS011;690;51.454;7.194;2023-10-31T06:09:10;10.40;;;8.47;;
1390;SDS011;690;51.454;7.194;2023-10-31T06:11:40;10.93;;;9.47;;
1390;SDS011;690;51.454;7.194;2023-10-31T06:14:10;13.03;;;10.67;;
1390;SDS011;690;51.454;7.194;2023-10-31T06:16:40;12.67;;;10.87;;
1390;SDS011;690;51.454;7.194;2023-10-31T06:19:07;14.47;;;9.90;;
1390;SDS011;690;51.454;7.194;2023-10-31T06:21:34;13.23;;;10.80;;
1390;SDS011;690;51.454;7.194;2023-10-31T06:24:03;13.93;;;11.17;;
1390;SDS011;690;51.454;7.194;2023-10-31T06:26:30;14.03;;;11.27;;
1390;SDS011;690;51.454;7.194;2023-10-31T06:28:57;16.80;;;12.23;;
1390;SDS011;690;51.454;7.194;2023-10-31T06:31:24;15.93;;;13.00;;
1390;SDS011;690;51.454;7.194;2023-10-31T06:33:51;17.63;;;13.60;;
1390;SDS011;690;51.454;7.194;2023-10-31T06:36:18;15.00;;;12.53;;
1390;SDS011;690;51.454;7.194;2023-10-31T06:38:44;20.30;;;15.23;;
1390;SDS011;690;51.454;7.194;2023-10-31T06:41:13;19.37;;;12.77;;
1390;SDS011;690;51.454;7.194;2023-10-31T06:43:40;18.07;;;13.40;;
1390;SDS011;690;51.454;7.194;2023-10-31T06:46:07;20.43;;;14.73;;
1390;SDS011;690;51.454;7.194;2023-10-31T06:48:34;20.90;;;15.40;;
1390;SDS011;690;51.454;7.194;2023-10-31T06:51:02;16.97;;;14.00;;
1390;SDS011;690;51.454;7.194;2023-10-31T06:53:29;21.53;;;14.13;;
1390;SDS011;690;51.454;7.194;2023-10-31T06:55:56;19.20;;;15.30;;
1390;SDS011;690;51.454;7.194;2023-10-31T06:58:25;21.10;;;14.33;;
1390;SDS011;690;51.454;7.194;2023-10-31T07:00:51;23.00;;;14.70;;
1390;SDS011;690;51.454;7.194;2023-10-31T07:03:19;21.73;;;15.07;;
1390;SDS011;690;51.454;7.194;2023-10-31T07:05:46;19.07;;;15.10;;
1390;SDS011;690;51.454;7.194;2023-10-31T07:08:13;22.00;;;15.70;;
1390;SDS011;690;51.454;7.194;2023-10-31T07:10:40;18.50;;;16.07;;
1390;SDS011;690;51.454;7.194;2023-10-31T07:13:07;22.43;;;15.13;;
1390;SDS011;690;51.454;7.194;2023-10-31T07:15:35;19.63;;;14.37;;
1390;SDS011;690;51.454;7.194;2023-10-31T07:18:04;19.20;;;14.90;;
1390;SDS011;690;51.454;7.194;2023-10-31T07:20:32;23.80;;;14.80;;
1390;SDS011;690;51.454;7.194;2023-10-31T07:22:59;18.80;;;14.77;;
1390;SDS011;690;51.454;7.194;2023-10-31T07:25:26;20.50;;;14.57;;
1390;SDS011;690;51.454;7.194;2023-10-31T07:27:53;24.23;;;15.10;;
1390;SDS011;690;51.454;7.194;2023-10-31T07:30:20;17.37;;;13.00;;
1390;SDS011;690;51.454;7.194;2023-10-31T07:32:49;15.63;;;12.40;;
1390;SDS011;690;51.454;7.194;2023-10-31T07:35:16;15.70;;;12.60;;
1390;SDS011;690;51.454;7.194;2023-10-31T07:37:44;20.63;;;11.90;;
1390;SDS011;690;51.454;7.194;2023-10-31T07:40:12;15.57;;;12.13;;
1390;SDS011;690;51.454;7.194;2023-10-31T07:42:39;13.20;;;10.30;;
1390;SDS011;690;51.454;7.194;2023-10-31T07:45:06;17.70;;;10.57;;
1390;SDS011;690;51.454;7.194;2023-10-31T07:47:35;14.50;;;11.17;;
1390;SDS011;690;51.454;7.194;2023-10-31T07:50:04;14.87;;;10.30;;
1390;SDS011;690;51.454;7.194;2023-10-31T07:52:31;10.80;;;9.27;;
1390;SDS011;690;51.454;7.194;2023-10-31T07:54:58;10.33;;;9.30;;
1390;SDS011;690;51.454;7.194;2023-10-31T07:57:26;12.67;;;9.93;;
1390;SDS011;690;51.454;7.194;2023-10-31T07:59:54;11.57;;;9.87;;
1390;SDS011;690;51.454;7.194;2023-10-31T08:02:21;13.00;;;10.20;;
1390;SDS011;690;51.454;7.194;2023-10-31T08:04:48;12.13;;;10.40;;
1390;SDS011;690;51.454;7.194;2023-10-31T08:07:16;12.53;;;10.17;;
1390;SDS011;690;51.454;7.194;2023-10-31T08:09:43;12.17;;;10.87;;
1390;SDS011;690;51.454;7.194;2023-10-31T08:12:10;14.07;;;9.87;;
1390;SDS011;690;51.454;7.194;2023-10-31T08:14:38;11.37;;;9.73;;
1390;SDS011;690;51.454;7.194;2023-10-31T08:17:05;12.30;;;9.80;;
1390;SDS011;690;51.454;7.194;2023-10-31T08:19:33;13.13;;;10.60;;
1390;SDS011;690;51.454;7.194;2023-10-31T08:22:00;13.43;;;10.40;;
1390;SDS011;690;51.454;7.194;2023-10-31T08:24:28;11.57;;;10.07;;
1390;SDS011;690;51.454;7.194;2023-10-31T08:26:55;16.47;;;11.73;;
1390;SDS011;690;51.454;7.194;2023-10-31T08:29:22;15.90;;;11.10;;
1390;SDS011;690;51.454;7.194;2023-10-31T08:31:49;13.23;;;11.00;;
1390;SDS011;690;51.454;7.194;2023-10-31T08:34:16;13.50;;;11.87;;
1390;SDS011;690;51.454;7.194;2023-10-31T08:36:43;13.23;;;11.83;;
1390;SDS011;690;51.454;7.194;2023-10-31T08:39:10;12.60;;;11.30;;
1390;SDS011;690;51.454;7.194;2023-10-31T08:41:39;12.70;;;11.37;;
1390;SDS011;690;51.454;7.194;2023-10-31T08:44:16;12.10;;;10.87;;
1390;SDS011;690;51.454;7.194;2023-10-31T08:46:43;13.20;;;9.73;;
1390;SDS011;690;51.454;7.194;2023-10-31T08:49:10;10.67;;;9.53;;
1390;SDS011;690;51.454;7.194;2023-10-31T08:51:38;11.23;;;9.80;;
1390;SDS011;690;51.454;7.194;2023-10-31T08:54:05;12.10;;;9.67;;
1390;SDS011;690;51.454;7.194;2023-10-31T08:56:34;9.70;;;8.80;;
1390;SDS011;690;51.454;7.194;2023-10-31T08:59:02;12.20;;;9.07;;
1390;SDS011;690;51.454;7.194;2023-10-31T09:01:29;10.03;;;8.90;;
1390;SDS011;690;51.454;7.194;2023-10-31T09:03:58;10.90;;;9.80;;
1390;SDS011;690;51.454;7.194;2023-10-31T09:06:26;9.80;;;8.63;;
1390;SDS011;690;51.454;7.194;2023-10-31T09:08:53;12.00;;;9.17;;
1390;SDS011;690;51.454;7.194;2023-10-31T09:11:20;10.33;;;9.30;;
1390;SDS011;690;51.454;7.194;2023-10-31T09:13:47;10.00;;;8.70;;
1390;SDS011;690;51.454;7.194;2023-10-31T09:16:15;9.37;;;8.40;;
1390;SDS011;690;51.454;7.194;2023-10-31T09:18:43;10.57;;;9.13;;
1390;SDS011;690;51.454;7.194;2023-10-31T09:21:10;10.97;;;9.90;;
1390;SDS011;690;51.454;7.194;2023-10-31T09:23:37;11.20;;;10.10;;
1390;SDS011;690;51.454;7.194;2023-10-31T09:26:04;10.90;;;8.93;;
1390;SDS011;690;51.454;7.194;2023-10-31T09:28:32;11.47;;;10.30;;
1390;SDS011;690;51.454;7.194;2023-10-31T09:31:02;10.97;;;9.87;;
1390;SDS011;690;51.454;7.194;2023-10-31T09:33:30;10.13;;;9.20;;
1390;SDS011;690;51.454;7.194;2023-10-31T09:35:57;10.83;;;9.70;;
1390;SDS011;690;51.454;7.194;2023-10-31T09:38:25;11.13;;;10.13;;
1390;SDS011;690;51.454;7.194;2023-10-31T09:40:53;10.63;;;9.53;;
1390;SDS011;690;51.454;7.194;2023-10-31T09:43:20;10.60;;;9.50;;
1390;SDS011;690;51.454;7.194;2023-10-31T09:45:47;10.10;;;8.53;;
1390;SDS011;690;51.454;7.194;2023-10-31T09:48:14;11.43;;;10.20;;
1390;SDS011;690;51.454;7.194;2023-10-31T09:50:45;11.30;;;10.20;;
1390;SDS011;690;51.454;7.194;2023-10-31T09:53:13;10.20;;;8.90;;
1390;SDS011;690;51.454;7.194;2023-10-31T09:55:41;10.07;;;9.07;;
1390;SDS011;690;51.454;7.194;2023-10-31T09:58:09;9.33;;;8.53;;
1390;SDS011;690;51.454;7.194;2023-10-31T10:00:36;9.83;;;8.93;;
1390;SDS011;690;51.454;7.194;2023-10-31T10:03:05;9.53;;;8.77;;
1390;SDS011;690;51.454;7.194;2023-10-31T10:05:34;9.20;;;8.27;;
1390;SDS011;690;51.454;7.194;2023-10-31T10:08:04;8.53;;;7.67;;
1390;SDS011;690;51.454;7.194;2023-10-31T10:10:33;7.70;;;6.90;;
1390;SDS011;690;51.454;7.194;2023-10-31T10:13:00;9.73;;;8.83;;
1390;SDS011;690;51.454;7.194;2023-10-31T10:15:29;8.93;;;7.80;;
1390;SDS011;690;51.454;7.194;2023-10-31T10:17:56;8.60;;;7.80;;
1390;SDS011;690;51.454;7.194;2023-10-31T10:20:23;7.70;;;6.90;;
1390;SDS011;690;51.454;7.194;2023-10-31T10:22:50;8.27;;;7.33;;
1390;SDS011;690;51.454;7.194;2023-10-31T10:25:19;9.33;;;7.50;;
1390;SDS011;690;51.454;7.194;2023-10-31T10:27:46;8.77;;;7.97;;
1390;SDS011;690;51.454;7.194;2023-10-31T10:30:14;8.00;;;7.20;;
1390;SDS011;690;51.454;7.194;2023-10-31T10:32:41;8.67;;;7.13;;
1390;SDS011;690;51.454;7.194;2023-10-31T10:35:08;8.50;;;7.70;;
1390;SDS011;690;51.454;7.194;2023-10-31T10:37:36;8.70;;;7.20;;
1390;SDS011;690;51.454;7.194;2023-10-31T10:40:05;8.53;;;7.67;;
1390;SDS011;690;51.454;7.194;2023-10-31T10:42:37;8.50;;;7.37;;
1390;SDS011;690;51.454;7.194;2023-10-31T10:45:11;8.30;;;7.30;;
1390;SDS011;690;51.454;7.194;2023-10-31T10:47:41;7.40;;;6.70;;
1390;SDS011;690;51.454;7.194;2023-10-31T10:50:13;9.10;;;7.97;;
1390;SDS011;690;51.454;7.194;2023-10-31T10:52:41;10.73;;;7.83;;
1390;SDS011;690;51.454;7.194;2023-10-31T10:55:12;10.00;;;9.00;;
1390;SDS011;690;51.454;7.194;2023-10-31T10:57:52;9.13;;;8.20;;
1390;SDS011;690;51.454;7.194;2023-10-31T11:00:22;14.00;;;9.63;;
1390;SDS011;690;51.454;7.194;2023-10-31T11:02:51;8.73;;;7.03;;
1390;SDS011;690;51.454;7.194;2023-10-31T11:05:19;8.33;;;7.37;;
1390;SDS011;690;51.454;7.194;2023-10-31T11:07:46;8.80;;;7.60;;
1390;SDS011;690;51.454;7.194;2023-10-31T11:10:14;8.20;;;6.80;;
1390;SDS011;690;51.454;7.194;2023-10-31T11:12:43;9.30;;;8.17;;
1390;SDS011;690;51.454;7.194;2023-10-31T11:15:16;9.23;;;7.50;;
1390;SDS011;690;51.454;7.194;2023-10-31T11:17:45;11.27;;;8.00;;
1390;SDS011;690;51.454;7.194;2023-10-31T11:20:16;15.20;;;7.50;;
1390;SDS011;690;51.454;7.194;2023-10-31T11:22:43;9.07;;;7.70;;
1390;SDS011;690;51.454;7.194;2023-10-31T11:25:14;10.87;;;8.33;;
1390;SDS011;690;51.454;7.194;2023-10-31T11:27:45;9.70;;;7.40;;
1390;SDS011;690;51.454;7.194;2023-10-31T11:30:26;8.63;;;7.80;;
1390;SDS011;690;51.454;7.194;2023-10-31T11:32:55;9.10;;;7.80;;
1390;SDS011;690;51.454;7.194;2023-10-31T11:35:24;10.63;;;8.93;;
1390;SDS011;690;51.454;7.194;2023-10-31T11:38:00;9.10;;;8.20;;
1390;SDS011;690;51.454;7.194;2023-10-31T11:40:28;9.10;;;8.20;;
1390;SDS011;690;51.454;7.194;2023-10-31T11:42:56;12.03;;;7.40;;
1390;SDS011;690;51.454;7.194;2023-10-31T11:45:29;8.43;;;7.50;;
1390;SDS011;690;51.454;7.194;2023-10-31T11:47:59;9.67;;;7.30;;
1390;SDS011;690;51.454;7.194;2023-10-31T11:50:26;9.70;;;6.60;;
1390;SDS011;690;51.454;7.194;2023-10-31T11:53:01;8.53;;;6.73;;
1390;SDS011;690;51.454;7.194;2023-10-31T11:55:30;6.63;;;6.03;;
1390;SDS011;690;51.454;7.194;2023-10-31T12:00:45;7.47;;;5.63;;
1390;SDS011;690;51.454;7.194;2023-10-31T12:03:15;6.77;;;5.23;;
1390;SDS011;690;51.454;7.194;2023-10-31T12:05:50;10.13;;;6.13;;
1390;SDS011;690;51.454;7.194;2023-10-31T12:08:24;7.20;;;5.53;;
1390;SDS011;690;51.454;7.194;2023-10-31T12:11:02;10.40;;;6.07;;
1390;SDS011;690;51.454;7.194;2023-10-31T12:13:31;10.60;;;5.80;;
1390;SDS011;690;51.454;7.194;2023-10-31T12:15:59;5.10;;;4.00;;
1390;SDS011;690;51.454;7.194;2023-10-31T12:18:27;6.93;;;4.37;;
1390;SDS011;690;51.454;7.194;2023-10-31T12:20:55;10.40;;;5.27;;
1390;SDS011;690;51.454;7.194;2023-10-31T12:23:22;10.67;;;5.63;;
1390;SDS011;690;51.454;7.194;2023-10-31T12:25:49;5.87;;;4.20;;
1390;SDS011;690;51.454;7.194;2023-10-31T12:28:17;6.57;;;3.93;;
1390;SDS011;690;51.454;7.194;2023-10-31T12:30:44;7.10;;;4.03;;
1390;SDS011;690;51.454;7.194;2023-10-31T12:33:13;7.10;;;3.50;;
1390;SDS011;690;51.454;7.194;2023-10-31T12:35:40;8.70;;;4.20;;
1390;SDS011;690;51.454;7.194;2023-10-31T12:38:10;7.07;;;4.47;;
1390;SDS011;690;51.454;7.194;2023-10-31T12:40:38;7.23;;;4.07;;
1390;SDS011;690;51.454;7.194;2023-10-31T12:43:06;7.23;;;4.10;;
1390;SDS011;690;51.454;7.194;2023-10-31T12:45:35;7.00;;;4.77;;
1390;SDS011;690;51.454;7.194;2023-10-31T12:48:02;7.77;;;4.67;;
1390;SDS011;690;51.454;7.194;2023-10-31T12:50:32;9.07;;;4.17;;
1390;SDS011;690;51.454;7.194;2023-10-31T12:52:59;7.73;;;4.30;;
1390;SDS011;690;51.454;7.194;2023-10-31T12:55:28;7.00;;;3.97;;
1390;SDS011;690;51.454;7.194;2023-10-31T12:57:56;7.20;;;3.20;;
1390;SDS011;690;51.454;7.194;2023-10-31T13:00:29;6.70;;;3.83;;
1390;SDS011;690;51.454;7.194;2023-10-31T13:03:00;7.63;;;3.33;;
1390;SDS011;690;51.454;7.194;2023-10-31T13:05:28;4.70;;;3.53;;
1390;SDS011;690;51.454;7.194;2023-10-31T13:07:57;5.87;;;3.10;;
1390;SDS011;690;51.454;7.194;2023-10-31T13:10:26;4.83;;;3.13;;
1390;SDS011;690;51.454;7.194;2023-10-31T13:12:53;6.70;;;2.87;;
1390;SDS011;690;51.454;7.194;2023-10-31T13:15:22;3.93;;;3.20;;
1390;SDS011;690;51.454;7.194;2023-10-31T13:17:49;6.50;;;3.37;;
1390;SDS011;690;51.454;7.194;2023-10-31T13:20:17;3.80;;;2.27;;
1390;SDS011;690;51.454;7.194;2023-10-31T13:22:45;6.23;;;3.00;;
1390;SDS011;690;51.454;7.194;2023-10-31T13:25:14;6.30;;;2.63;;
1390;SDS011;690;51.454;7.194;2023-10-31T13:27:42;5.13;;;2.70;;
1390;SDS011;690;51.454;7.194;2023-10-31T13:30:15;4.20;;;2.60;;
1390;SDS011;690;51.454;7.194;2023-10-31T13:32:43;10.73;;;3.10;;
1390;SDS011;690;51.454;7.194;2023-10-31T13:35:11;4.57;;;2.63;;
1390;SDS011;690;51.454;7.194;2023-10-31T13:37:40;4.50;;;2.70;;
1390;SDS011;690;51.454;7.194;2023-10-31T13:40:08;4.13;;;2.60;;
1390;SDS011;690;51.454;7.194;2023-10-31T13:42:36;5.50;;;2.67;;
1390;SDS011;690;51.454;7.194;2023-10-31T13:45:05;8.03;;;2.63;;
1390;SDS011;690;51.454;7.194;2023-10-31T13:47:32;3.43;;;2.27;;
1390;SDS011;690;51.454;7.194;2023-10-31T13:50:00;4.70;;;2.87;;
1390;SDS011;690;51.454;7.194;2023-10-31T13:52:26;2.40;;;2.20;;
1390;SDS011;690;51.454;7.194;2023-10-31T13:54:53;5.50;;;1.83;;
1390;SDS011;690;51.454;7.194;2023-10-31T13:57:21;3.90;;;1.87;;
1390;SDS011;690;51.454;7.194;2023-10-31T13:59:49;4.97;;;2.03;;
1390;SDS011;690;51.454;7.194;2023-10-31T14:02:17;3.77;;;1.93;;
1390;SDS011;690;51.454;7.194;2023-10-31T14:04:44;5.93;;;2.67;;
1390;SDS011;690;51.454;7.194;2023-10-31T14:07:12;3.47;;;1.97;;
1390;SDS011;690;51.454;7.194;2023-10-31T14:09:46;5.40;;;1.87;;
1390;SDS011;690;51.454;7.194;2023-10-31T14:12:14;2.27;;;1.83;;
1390;SDS011;690;51.454;7.194;2023-10-31T14:14:41;1.93;;;1.73;;
1390;SDS011;690;51.454;7.194;2023-10-31T14:17:09;3.67;;;1.97;;
1390;SDS011;690;51.454;7.194;2023-10-31T14:19:36;4.13;;;2.30;;
1390;SDS011;690;51.454;7.194;2023-10-31T14:22:03;1.80;;;1.60;;
1390;SDS011;690;51.454;7.194;2023-10-31T14:24:30;4.00;;;2.30;;
1390;SDS011;690;51.454;7.194;2023-10-31T14:26:58;3.80;;;2.40;;
1390;SDS011;690;51.454;7.194;2023-10-31T14:29:25;3.03;;;2.10;;
1390;SDS011;690;51.454;7.194;2023-10-31T14:31:52;4.30;;;2.77;;
1390;SDS011;690;51.454;7.194;2023-10-31T14:34:22;3.33;;;1.83;;
1390;SDS011;690;51.454;7.194;2023-10-31T14:36:49;2.70;;;2.10;;
1390;SDS011;690;51.454;7.194;2023-10-31T14:39:16;5.23;;;2.93;;
1390;SDS011;690;51.454;7.194;2023-10-31T14:41:44;3.03;;;2.53;;
1390;SDS011;690;51.454;7.194;2023-10-31T14:44:10;3.00;;;2.20;;
1390;SDS011;690;51.454;7.194;2023-10-31T14:46:40;4.90;;;3.00;;
1390;SDS011;690;51.454;7.194;2023-10-31T14:49:07;5.73;;;2.83;;
1390;SDS011;690;51.454;7.194;2023-10-31T14:51:36;4.00;;;3.30;;
1390;SDS011;690;51.454;7.194;2023-10-31T14:54:03;3.10;;;2.80;;
1390;SDS011;690;51.454;7.194;2023-10-31T14:56:31;6.33;;;3.37;;
1390;SDS011;690;51.454;7.194;2023-10-31T14:58:59;3.90;;;3.27;;
1390;SDS011;690;51.454;7.194;2023-10-31T15:01:27;3.30;;;2.53;;
1390;SDS011;690;51.454;7.194;2023-10-31T15:03:54;6.17;;;3.07;;
1390;SDS011;690;51.454;7.194;2023-10-31T15:06:21;5.07;;;3.00;;
1390;SDS011;690;51.454;7.194;2023-10-31T15:08:49;7.43;;;3.10;;
1390;SDS011;690;51.454;7.194;2023-10-31T15:11:16;4.60;;;3.23;;
1390;SDS011;690;51.454;7.194;2023-10-31T15:13:43;3.83;;;3.10;;
1390;SDS011;690;51.454;7.194;2023-10-31T15:16:10;4.80;;;3.00;;
1390;SDS011;690;51.454;7.194;2023-10-31T15:18:37;3.03;;;2.37;;
1390;SDS011;690;51.454;7.194;2023-10-31T15:21:04;4.47;;;2.80;;
1390;SDS011;690;51.454;7.194;2023-10-31T15:23:31;5.00;;;3.70;;
1390;SDS011;690;51.454;7.194;2023-10-31T15:26:02;4.33;;;2.90;;